createdAt,value
2023-03-18T00:00:49.668Z,58.72
2023-03-18T00:01:23.901Z,58.52
2023-03-18T00:02:04.563Z,58.39
2023-03-18T00:02:38.836Z,58.43
2023-03-18T00:03:14.030Z,58.56
2023-03-18T00:03:54.594Z,58.50
2023-03-18T00:04:29.484Z,58.38
2023-03-18T00:05:11.624Z,58.36
2023-03-18T00:05:52.781Z,58.17
2023-03-18T00:06:33.568Z,58.77
2023-03-18T00:07:14.706Z,58.54
2023-03-18T00:07:55.568Z,58.59
2023-03-18T00:08:35.690Z,58.31
2023-03-18T00:09:17.543Z,58.90
2023-03-18T00:09:57.959Z,58.58
2023-03-18T00:10:41.560Z,58.82
2023-03-18T00:11:27.263Z,58.47
2023-03-18T00:12:08.558Z,58.67
2023-03-18T00:12:49.669Z,58.34
2023-03-18T00:13:36.571Z,58.41
2023-03-18T00:14:11.143Z,58.41
2023-03-18T00:14:59.552Z,58.31
2023-03-18T00:15:33.734Z,58.60
2023-03-18T00:16:17.699Z,58.79
2023-03-18T00:16:57.728Z,58.44
2023-03-18T00:17:38.536Z,58.42
2023-03-18T00:18:18.885Z,58.35
2023-03-18T00:19:00.548Z,58.22
2023-03-18T00:19:41.297Z,58.33
2023-03-18T00:20:24.541Z,58.24
2023-03-18T00:21:05.638Z,58.21
2023-03-18T00:21:46.572Z,58.19
2023-03-18T00:22:26.631Z,58.31
2023-03-18T00:23:07.549Z,58.27
2023-03-18T00:23:49.592Z,58.10
2023-03-18T00:24:29.535Z,58.16
2023-03-18T00:25:12.903Z,58.00
2023-03-18T00:25:58.556Z,58.02
2023-03-18T00:26:38.677Z,58.22
2023-03-18T00:27:19.559Z,58.19
2023-03-18T00:27:59.655Z,58.18
2023-03-18T00:28:40.551Z,58.33
2023-03-18T00:29:20.662Z,58.30
2023-03-18T00:30:00.533Z,58.52
2023-03-18T00:30:44.684Z,58.16
2023-03-18T00:31:25.594Z,58.40
2023-03-18T00:32:06.638Z,58.21
2023-03-18T00:32:47.622Z,58.42
2023-03-18T00:33:27.623Z,58.24
2023-03-18T00:34:08.861Z,58.08
2023-03-18T00:34:50.626Z,57.93
2023-03-18T00:35:34.547Z,58.56
2023-03-18T00:36:15.901Z,58.24
2023-03-18T00:36:57.573Z,58.18
2023-03-18T00:37:38.692Z,57.88
2023-03-18T00:38:27.555Z,58.41
2023-03-18T00:39:09.262Z,58.11
2023-03-18T00:39:52.560Z,58.24
2023-03-18T00:40:43.313Z,58.40
2023-03-18T00:41:24.518Z,58.29
2023-03-18T00:42:10.587Z,58.43
2023-03-18T00:42:54.927Z,58.58
2023-03-18T00:43:52.939Z,58.58
2023-03-18T00:44:47.559Z,58.06
2023-03-18T00:45:41.545Z,58.80
2023-03-18T00:46:39.542Z,58.96
2023-03-18T00:47:33.543Z,58.74
2023-03-18T00:48:27.507Z,58.65
2023-03-18T00:49:16.533Z,58.44
2023-03-18T00:49:51.383Z,58.44
2023-03-18T00:50:38.518Z,58.62
2023-03-18T00:51:14.165Z,58.85
2023-03-18T00:52:01.517Z,58.66
2023-03-18T00:52:35.640Z,58.62
2023-03-18T00:53:23.519Z,58.81
2023-03-18T00:54:01.862Z,58.89
2023-03-18T00:54:42.572Z,58.72
2023-03-18T00:55:22.639Z,58.98
2023-03-18T00:56:02.490Z,58.51
2023-03-18T00:56:43.605Z,58.64
2023-03-18T00:57:24.520Z,58.84
2023-03-18T00:58:04.630Z,59.02
2023-03-18T00:58:45.535Z,58.97
2023-03-18T00:59:26.054Z,58.98
2023-03-18T01:00:07.524Z,58.75
2023-03-18T01:00:47.672Z,59.22
2023-03-18T01:01:29.509Z,59.12
2023-03-18T01:02:09.638Z,59.33
2023-03-18T01:02:50.480Z,59.06
2023-03-18T01:03:31.663Z,59.14
2023-03-18T01:04:12.512Z,59.17
2023-03-18T01:04:53.245Z,59.45
2023-03-18T01:05:34.537Z,59.77
2023-03-18T01:06:18.658Z,59.54
2023-03-18T01:06:59.494Z,59.54
2023-03-18T01:07:39.586Z,59.45
2023-03-18T01:08:20.512Z,59.27
2023-03-18T01:09:02.627Z,59.68
2023-03-18T01:09:43.480Z,59.70
2023-03-18T01:10:23.638Z,59.85
2023-03-18T01:11:04.573Z,59.80
2023-03-18T01:11:44.639Z,59.87
2023-03-18T01:12:25.517Z,59.68
2023-03-18T01:13:05.613Z,60.17
2023-03-18T01:13:46.503Z,59.99
2023-03-18T01:14:26.599Z,60.05
2023-03-18T01:15:07.497Z,60.10
2023-03-18T01:15:48.571Z,59.65
2023-03-18T01:16:30.634Z,60.02
2023-03-18T01:17:12.600Z,59.63
2023-03-18T01:17:53.500Z,59.89
2023-03-18T01:18:35.134Z,59.70
2023-03-18T01:19:17.090Z,60.07
2023-03-18T01:19:57.608Z,59.95
2023-03-18T01:20:38.479Z,59.55
2023-03-18T01:21:18.603Z,59.96
2023-03-18T01:21:59.559Z,60.16
2023-03-18T01:22:41.388Z,60.04
2023-03-18T01:23:21.495Z,59.94
2023-03-18T01:24:15.500Z,60.12
2023-03-18T01:25:09.491Z,60.29
2023-03-18T01:26:04.480Z,60.38
2023-03-18T01:26:58.486Z,60.00
2023-03-18T01:27:38.496Z,60.20
2023-03-18T01:28:20.764Z,60.25
2023-03-18T01:29:00.505Z,60.50
2023-03-18T01:29:41.623Z,60.22
2023-03-18T01:30:22.487Z,60.23
2023-03-18T01:31:03.587Z,60.21
2023-03-18T01:31:44.482Z,60.53
2023-03-18T01:32:24.507Z,60.29
2023-03-18T01:32:58.812Z,60.36
2023-03-18T01:33:46.474Z,60.17
2023-03-18T01:34:21.504Z,60.28
2023-03-18T01:35:09.468Z,60.16
2023-03-18T01:35:46.886Z,60.33
2023-03-18T01:36:34.486Z,60.46
2023-03-18T01:37:08.630Z,60.41
2023-03-18T01:37:50.488Z,60.22
2023-03-18T01:38:32.553Z,60.29
2023-03-18T01:39:13.462Z,60.01
2023-03-18T01:39:53.635Z,60.10
2023-03-18T01:40:35.460Z,60.23
2023-03-18T01:41:17.335Z,60.15
2023-03-18T01:41:58.457Z,60.29
2023-03-18T01:42:38.544Z,60.46
2023-03-18T01:43:30.477Z,60.73
2023-03-18T01:44:11.019Z,60.32
2023-03-18T01:44:52.473Z,60.93
2023-03-18T01:45:36.579Z,60.96
2023-03-18T01:46:41.452Z,60.81
2023-03-18T01:47:21.673Z,60.73
2023-03-18T01:48:04.454Z,60.79
2023-03-18T01:48:46.457Z,60.63
2023-03-18T01:49:43.560Z,61.02
2023-03-18T01:50:38.456Z,60.90
2023-03-18T01:51:16.091Z,60.83
2023-03-18T01:52:11.470Z,61.08
2023-03-18T01:52:45.573Z,60.79
2023-03-18T01:53:38.437Z,60.71
2023-03-18T01:54:20.466Z,60.66
2023-03-18T01:55:07.598Z,60.47
2023-03-18T01:55:42.145Z,60.69
2023-03-18T01:56:24.474Z,60.46
2023-03-18T01:56:59.550Z,60.27
2023-03-18T01:57:34.118Z,60.54
2023-03-18T01:58:29.464Z,60.63
2023-03-18T01:59:04.550Z,60.65
2023-03-18T01:59:47.467Z,60.71
2023-03-18T02:00:28.555Z,60.83
2023-03-18T02:01:18.483Z,60.33
2023-03-18T02:02:18.537Z,60.63
2023-03-18T02:03:00.469Z,60.72
2023-03-18T02:03:41.680Z,60.58
2023-03-18T02:04:22.447Z,60.90
2023-03-18T02:05:13.488Z,60.71
2023-03-18T02:05:49.999Z,60.74
2023-03-18T02:06:38.436Z,61.08
2023-03-18T02:07:21.454Z,60.56
2023-03-18T02:08:08.431Z,60.57
2023-03-18T02:08:42.224Z,60.31
2023-03-18T02:09:30.441Z,60.57
2023-03-18T02:10:14.419Z,60.72
2023-03-18T02:10:55.461Z,60.28
2023-03-18T02:11:30.551Z,60.22
2023-03-18T02:12:04.736Z,60.67
2023-03-18T02:12:48.436Z,60.50
2023-03-18T02:13:23.619Z,60.52
2023-03-18T02:13:57.596Z,60.62
2023-03-18T02:14:38.416Z,60.77
2023-03-18T02:15:18.634Z,60.39
2023-03-18T02:16:03.453Z,60.56
2023-03-18T02:16:54.586Z,60.59
2023-03-18T02:17:39.420Z,60.77
2023-03-18T02:18:45.669Z,60.94
2023-03-18T02:20:19.411Z,60.70
2023-03-18T02:21:59.500Z,60.56
2023-03-18T02:22:38.295Z,60.85
2023-03-18T02:23:44.480Z,60.69
2023-03-18T02:24:44.905Z,60.60
2023-03-18T02:25:54.420Z,60.76
2023-03-18T02:26:46.444Z,60.89
2023-03-18T02:27:33.423Z,61.02
2023-03-18T02:28:15.507Z,60.91
2023-03-18T02:28:52.158Z,60.76
2023-03-18T02:29:38.418Z,60.92
2023-03-18T02:30:23.512Z,60.77
2023-03-18T02:31:01.319Z,60.78
2023-03-18T02:31:43.431Z,60.81
2023-03-18T02:32:17.615Z,60.89
2023-03-18T02:32:58.446Z,60.82
2023-03-18T02:33:43.505Z,60.70
2023-03-18T02:34:24.393Z,60.40
2023-03-18T02:35:09.533Z,61.04
2023-03-18T02:35:53.484Z,60.74
2023-03-18T02:36:36.555Z,60.69
2023-03-18T02:37:17.433Z,60.74
2023-03-18T02:37:57.500Z,60.79
2023-03-18T02:38:38.423Z,60.70
2023-03-18T02:39:21.698Z,60.90
2023-03-18T02:40:02.391Z,60.79
2023-03-18T02:40:48.496Z,60.69
2023-03-18T02:41:41.419Z,60.96
2023-03-18T02:42:21.504Z,61.64
2023-03-18T02:43:02.427Z,61.35
2023-03-18T02:43:49.427Z,60.94
2023-03-18T02:44:23.440Z,61.01
2023-03-18T02:45:12.412Z,61.05
2023-03-18T02:46:01.232Z,60.79
2023-03-18T02:47:00.393Z,60.92
2023-03-18T02:47:34.311Z,60.95
2023-03-18T02:48:25.410Z,60.89
2023-03-18T02:49:08.460Z,60.67
2023-03-18T02:49:48.773Z,60.77
2023-03-18T02:50:30.667Z,61.34
2023-03-18T02:51:16.066Z,61.04
2023-03-18T02:51:58.389Z,60.74
2023-03-18T02:52:39.720Z,61.09
2023-03-18T02:53:20.388Z,60.95
2023-03-18T02:54:20.407Z,60.80
2023-03-18T02:55:14.402Z,60.73
2023-03-18T02:56:08.406Z,60.90
2023-03-18T02:57:04.406Z,61.31
2023-03-18T02:57:58.460Z,61.06
2023-03-18T02:58:53.390Z,61.28
2023-03-18T02:59:41.411Z,60.99
2023-03-18T03:00:17.474Z,61.08
2023-03-18T03:01:04.449Z,60.93
2023-03-18T03:01:39.534Z,60.66
2023-03-18T03:02:30.473Z,61.04
2023-03-18T03:03:05.229Z,60.86
2023-03-18T03:03:52.388Z,60.93
2023-03-18T03:04:28.467Z,61.01
2023-03-18T03:05:09.406Z,60.92
2023-03-18T03:05:49.510Z,61.10
2023-03-18T03:06:30.366Z,61.12
2023-03-18T03:07:10.457Z,61.37
2023-03-18T03:07:50.409Z,60.96
2023-03-18T03:08:31.492Z,61.03
2023-03-18T03:09:14.384Z,61.05
2023-03-18T03:09:55.006Z,60.79
2023-03-18T03:10:37.400Z,60.90
2023-03-18T03:11:17.511Z,60.81
2023-03-18T03:11:58.378Z,60.88
2023-03-18T03:12:39.751Z,60.96
2023-03-18T03:13:20.381Z,60.83
2023-03-18T03:14:01.504Z,61.11
2023-03-18T03:14:42.385Z,61.01
2023-03-18T03:15:22.496Z,61.17
2023-03-18T03:16:03.452Z,60.90
2023-03-18T03:16:44.471Z,60.81
2023-03-18T03:17:25.366Z,61.16
2023-03-18T03:18:05.460Z,61.05
2023-03-18T03:18:47.369Z,60.56
2023-03-18T03:19:27.461Z,61.20
2023-03-18T03:20:07.356Z,60.87
2023-03-18T03:20:47.726Z,61.17
2023-03-18T03:21:28.411Z,60.87
2023-03-18T03:22:08.573Z,60.72
2023-03-18T03:22:49.370Z,60.84
2023-03-18T03:23:29.460Z,60.84
2023-03-18T03:24:12.385Z,60.74
2023-03-18T03:24:52.485Z,61.19
2023-03-18T03:25:34.353Z,61.36
2023-03-18T03:26:14.642Z,61.20
2023-03-18T03:26:55.432Z,60.94
2023-03-18T03:27:37.880Z,60.99
2023-03-18T03:28:20.393Z,61.06
2023-03-18T03:29:00.612Z,61.56
2023-03-18T03:29:41.360Z,61.76
2023-03-18T03:30:23.451Z,61.09
2023-03-18T03:31:04.498Z,60.97
2023-03-18T03:31:45.175Z,60.95
2023-03-18T03:32:26.362Z,60.93
2023-03-18T03:33:07.554Z,61.16
2023-03-18T03:33:50.362Z,60.84
2023-03-18T03:34:30.522Z,60.99
2023-03-18T03:35:11.362Z,60.96
2023-03-18T03:35:51.582Z,61.00
2023-03-18T03:36:32.368Z,61.39
2023-03-18T03:37:12.460Z,60.98
2023-03-18T03:37:53.368Z,60.97
2023-03-18T03:38:33.600Z,61.09
2023-03-18T03:39:14.328Z,60.84
2023-03-18T03:39:54.985Z,60.99
2023-03-18T03:40:37.364Z,61.19
2023-03-18T03:41:19.627Z,60.92
2023-03-18T03:42:00.350Z,61.07
2023-03-18T03:42:40.441Z,61.07
2023-03-18T03:43:21.380Z,61.04
2023-03-18T03:44:01.449Z,60.97
2023-03-18T03:44:41.362Z,61.26
2023-03-18T03:45:24.887Z,61.07
2023-03-18T03:46:06.366Z,61.10
2023-03-18T03:46:46.699Z,61.17
2023-03-18T03:47:27.356Z,61.06
2023-03-18T03:48:08.901Z,61.26
2023-03-18T03:48:49.351Z,61.12
2023-03-18T03:49:29.434Z,61.19
2023-03-18T03:50:12.337Z,60.81
2023-03-18T03:50:52.447Z,60.68
2023-03-18T03:51:32.350Z,61.02
2023-03-18T03:52:13.485Z,61.20
2023-03-18T03:52:54.369Z,61.27
2023-03-18T03:53:34.454Z,61.03
2023-03-18T03:54:15.393Z,61.42
2023-03-18T03:54:56.486Z,61.36
2023-03-18T03:55:37.327Z,61.63
2023-03-18T03:56:18.004Z,61.31
2023-03-18T03:56:59.331Z,61.43
2023-03-18T03:57:41.824Z,61.58
2023-03-18T03:58:22.320Z,61.41
2023-03-18T03:59:02.413Z,61.37
2023-03-18T03:59:42.354Z,61.29
2023-03-18T04:00:27.433Z,61.18
2023-03-18T04:01:08.332Z,61.60
2023-03-18T04:01:48.410Z,61.26
2023-03-18T04:02:30.340Z,61.72
2023-03-18T04:03:10.554Z,61.54
2023-03-18T04:03:51.378Z,61.31
2023-03-18T04:04:31.789Z,61.37
2023-03-18T04:05:14.545Z,61.49
2023-03-18T04:05:54.692Z,61.37
2023-03-18T04:06:36.318Z,61.43
2023-03-18T04:07:16.411Z,60.96
2023-03-18T04:07:58.314Z,61.27
2023-03-18T04:08:38.449Z,60.88
2023-03-18T04:09:19.316Z,60.92
2023-03-18T04:09:59.457Z,61.09
2023-03-18T04:10:41.334Z,60.81
2023-03-18T04:11:21.837Z,60.72
2023-03-18T04:12:01.322Z,60.97
2023-03-18T04:12:42.415Z,60.68
2023-03-18T04:13:22.323Z,60.97
2023-03-18T04:14:03.438Z,60.89
2023-03-18T04:14:44.308Z,60.77
2023-03-18T04:15:27.633Z,60.95
2023-03-18T04:16:08.392Z,61.10
2023-03-18T04:16:48.898Z,61.33
2023-03-18T04:17:30.311Z,60.91
2023-03-18T04:18:11.740Z,61.12
2023-03-18T04:18:52.315Z,60.76
2023-03-18T04:19:34.484Z,61.41
2023-03-18T04:20:16.325Z,61.11
2023-03-18T04:20:56.463Z,61.23
2023-03-18T04:21:37.338Z,61.09
2023-03-18T04:22:18.275Z,61.28
2023-03-18T04:22:59.306Z,60.99
2023-03-18T04:23:39.384Z,61.21
2023-03-18T04:24:19.297Z,60.87
2023-03-18T04:24:59.443Z,61.24
2023-03-18T04:25:40.336Z,60.71
2023-03-18T04:26:20.479Z,60.76
2023-03-18T04:27:01.388Z,60.58
2023-03-18T04:27:41.395Z,60.80
2023-03-18T04:28:22.312Z,60.69
2023-03-18T04:29:03.623Z,61.37
2023-03-18T04:29:44.301Z,60.73
2023-03-18T04:30:25.458Z,60.94
2023-03-18T04:31:06.352Z,60.64
2023-03-18T04:31:46.450Z,60.81
2023-03-18T04:32:27.360Z,60.97
2023-03-18T04:33:10.093Z,60.82
2023-03-18T04:33:51.296Z,60.82
2023-03-18T04:34:31.919Z,60.83
2023-03-18T04:35:14.322Z,60.84
2023-03-18T04:35:55.650Z,60.82
2023-03-18T04:36:36.286Z,60.55
2023-03-18T04:37:20.003Z,60.46
2023-03-18T04:38:01.298Z,60.94
2023-03-18T04:38:41.434Z,60.79
2023-03-18T04:39:22.294Z,60.80
2023-03-18T04:40:05.353Z,61.18
2023-03-18T04:40:45.292Z,61.00
2023-03-18T04:41:25.523Z,61.02
2023-03-18T04:42:05.281Z,60.81
2023-03-18T04:42:47.873Z,60.91
2023-03-18T04:43:29.301Z,60.70
2023-03-18T04:44:10.397Z,60.90
2023-03-18T04:44:51.296Z,60.43
2023-03-18T04:45:31.398Z,60.39
2023-03-18T04:46:12.417Z,60.60
2023-03-18T04:46:53.590Z,60.20
2023-03-18T04:47:34.283Z,60.51
2023-03-18T04:48:14.420Z,60.55
2023-03-18T04:48:55.309Z,60.42
2023-03-18T04:49:35.567Z,60.61
2023-03-18T04:50:18.281Z,60.38
2023-03-18T04:50:58.358Z,60.29
2023-03-18T04:51:39.257Z,60.09
2023-03-18T04:52:20.180Z,60.01
2023-03-18T04:53:00.276Z,60.17
2023-03-18T04:53:42.061Z,60.06
2023-03-18T04:54:22.308Z,60.18
2023-03-18T04:55:03.307Z,60.10
2023-03-18T04:55:44.269Z,60.15
2023-03-18T04:56:25.757Z,59.92
2023-03-18T04:57:06.261Z,59.89
2023-03-18T04:57:46.344Z,59.72
2023-03-18T04:58:26.280Z,59.75
2023-03-18T04:59:06.530Z,59.66
2023-03-18T04:59:47.283Z,59.84
2023-03-18T05:00:29.673Z,59.64
2023-03-18T05:01:11.296Z,59.88
2023-03-18T05:01:51.358Z,59.68
2023-03-18T05:02:32.300Z,59.36
2023-03-18T05:03:12.375Z,59.75
2023-03-18T05:03:53.268Z,59.73
2023-03-18T05:04:33.724Z,59.52
2023-03-18T05:05:15.286Z,59.71
2023-03-18T05:05:57.037Z,59.92
2023-03-18T05:06:40.260Z,59.90
2023-03-18T05:07:23.435Z,59.86
2023-03-18T05:08:04.254Z,59.88
2023-03-18T05:08:44.675Z,59.72
2023-03-18T05:09:26.259Z,59.81
2023-03-18T05:10:06.910Z,60.07
2023-03-18T05:10:48.264Z,59.65
2023-03-18T05:11:28.521Z,59.80
2023-03-18T05:12:09.263Z,60.09
2023-03-18T05:12:50.599Z,59.74
2023-03-18T05:13:30.250Z,60.15
2023-03-18T05:14:10.354Z,59.91
2023-03-18T05:14:51.243Z,59.96
2023-03-18T05:15:31.797Z,59.86
2023-03-18T05:16:13.280Z,60.13
2023-03-18T05:16:53.742Z,59.90
2023-03-18T05:17:34.251Z,59.78
2023-03-18T05:18:16.326Z,59.99
2023-03-18T05:18:57.254Z,59.73
2023-03-18T05:19:37.542Z,59.99
2023-03-18T05:20:20.246Z,59.99
2023-03-18T05:21:00.660Z,60.10
2023-03-18T05:21:40.272Z,60.25
2023-03-18T05:22:23.338Z,59.91
2023-03-18T05:23:04.248Z,59.95
2023-03-18T05:23:45.357Z,59.91
2023-03-18T05:24:26.294Z,60.04
2023-03-18T05:25:06.380Z,60.25
2023-03-18T05:25:47.231Z,60.10
2023-03-18T05:26:27.346Z,59.95
2023-03-18T05:27:08.342Z,60.05
2023-03-18T05:27:49.597Z,59.91
2023-03-18T05:28:30.234Z,60.16
2023-03-18T05:29:10.538Z,60.04
2023-03-18T05:29:51.238Z,59.93
2023-03-18T05:30:31.761Z,59.52
2023-03-18T05:31:13.245Z,59.70
2023-03-18T05:31:53.358Z,59.80
2023-03-18T05:32:34.344Z,60.02
2023-03-18T05:33:14.638Z,59.88
2023-03-18T05:33:54.244Z,60.17
2023-03-18T05:34:34.360Z,59.83
2023-03-18T05:35:16.233Z,59.76
2023-03-18T05:35:56.817Z,59.66
2023-03-18T05:36:38.213Z,59.74
2023-03-18T05:37:20.372Z,59.73
2023-03-18T05:38:02.259Z,59.74
2023-03-18T05:38:42.327Z,59.64
2023-03-18T05:39:22.225Z,59.91
2023-03-18T05:40:02.546Z,59.89
2023-03-18T05:40:44.218Z,59.69
2023-03-18T05:41:24.318Z,59.84
2023-03-18T05:42:05.217Z,59.79
2023-03-18T05:42:55.941Z,59.84
2023-03-18T05:43:36.231Z,59.60
2023-03-18T05:44:16.906Z,59.61
2023-03-18T05:44:58.274Z,59.94
2023-03-18T05:45:40.323Z,59.89
2023-03-18T05:46:20.259Z,59.75
2023-03-18T05:47:01.649Z,59.70
2023-03-18T05:47:42.230Z,59.79
2023-03-18T05:48:22.322Z,59.58
2023-03-18T05:49:03.223Z,59.70
2023-03-18T05:49:44.420Z,59.81
2023-03-18T05:50:37.223Z,59.37
2023-03-18T05:51:17.317Z,59.92
2023-03-18T05:51:58.213Z,59.57
2023-03-18T05:52:38.591Z,59.45
2023-03-18T05:53:19.206Z,59.35
2023-03-18T05:53:59.689Z,59.55
2023-03-18T05:54:40.222Z,59.38
2023-03-18T05:55:23.374Z,59.45
2023-03-18T05:56:04.212Z,59.47
2023-03-18T05:56:45.486Z,59.34
2023-03-18T05:57:26.221Z,59.11
2023-03-18T05:58:06.340Z,59.14
2023-03-18T05:58:47.220Z,59.57
2023-03-18T05:59:30.164Z,59.52
2023-03-18T06:00:11.248Z,59.34
2023-03-18T06:00:51.501Z,59.38
2023-03-18T06:01:32.194Z,59.25
2023-03-18T06:02:12.914Z,59.45
2023-03-18T06:02:54.195Z,59.32
2023-03-18T06:03:34.715Z,59.60
2023-03-18T06:04:16.222Z,59.23
2023-03-18T06:04:56.317Z,59.18
2023-03-18T06:05:37.254Z,59.26
2023-03-18T06:06:17.704Z,59.36
2023-03-18T06:06:58.216Z,59.37
2023-03-18T06:07:38.298Z,59.19
2023-03-18T06:08:19.191Z,59.48
2023-03-18T06:09:01.035Z,59.35
2023-03-18T06:09:42.182Z,59.38
2023-03-18T06:10:23.326Z,59.19
2023-03-18T06:11:03.229Z,59.17
2023-03-18T06:11:44.506Z,59.54
2023-03-18T06:12:27.216Z,59.67
2023-03-18T06:13:07.771Z,59.39
2023-03-18T06:13:50.201Z,59.24
2023-03-18T06:14:31.352Z,59.54
2023-03-18T06:15:15.174Z,59.59
2023-03-18T06:15:55.288Z,59.54
2023-03-18T06:16:36.295Z,59.76
2023-03-18T06:17:16.434Z,59.67
2023-03-18T06:17:57.200Z,59.89
2023-03-18T06:18:37.301Z,59.96
2023-03-18T06:19:18.192Z,59.65
2023-03-18T06:19:59.124Z,59.89
2023-03-18T06:20:40.177Z,59.79
2023-03-18T06:21:20.295Z,59.67
2023-03-18T06:22:01.191Z,59.76
2023-03-18T06:22:43.665Z,59.63
2023-03-18T06:23:31.235Z,59.49
2023-03-18T06:24:14.624Z,59.41
2023-03-18T06:25:00.867Z,59.58
2023-03-18T06:25:46.514Z,59.55
2023-03-18T06:26:28.193Z,59.66
2023-03-18T06:27:15.260Z,59.83
2023-03-18T06:28:09.170Z,59.66
2023-03-18T06:29:03.173Z,59.57
2023-03-18T06:29:57.186Z,59.49
2023-03-18T06:30:51.228Z,59.70
2023-03-18T06:31:45.189Z,59.45
2023-03-18T06:32:34.261Z,59.59
2023-03-18T06:33:11.352Z,59.46
2023-03-18T06:34:01.712Z,59.96
2023-03-18T06:34:36.310Z,59.70
2023-03-18T06:35:24.159Z,59.44
2023-03-18T06:36:02.320Z,59.87
2023-03-18T06:36:52.194Z,59.82
2023-03-18T06:37:26.515Z,59.28
2023-03-18T06:38:06.185Z,59.99
2023-03-18T06:38:46.261Z,60.33
2023-03-18T06:39:27.170Z,59.81
2023-03-18T06:40:07.294Z,59.94
2023-03-18T06:40:49.566Z,59.75
2023-03-18T06:41:30.288Z,59.72
2023-03-18T06:42:11.159Z,59.91
2023-03-18T06:42:51.275Z,59.44
2023-03-18T06:43:32.193Z,59.77
2023-03-18T06:44:13.319Z,59.69
2023-03-18T06:44:59.501Z,59.83
2023-03-18T06:45:40.309Z,59.78
2023-03-18T06:46:21.186Z,59.80
2023-03-18T06:47:02.724Z,59.52
2023-03-18T06:47:47.137Z,59.74
2023-03-18T06:48:28.316Z,59.87
2023-03-18T06:49:09.195Z,59.78
2023-03-18T06:49:49.266Z,59.76
2023-03-18T06:50:32.168Z,59.90
2023-03-18T06:51:13.504Z,59.92
2023-03-18T06:52:02.568Z,60.41
2023-03-18T06:52:44.298Z,60.10
2023-03-18T06:53:28.150Z,60.13
2023-03-18T06:54:16.156Z,60.24
2023-03-18T06:55:10.140Z,59.98
2023-03-18T06:56:04.175Z,60.25
2023-03-18T06:56:58.200Z,59.83
2023-03-18T06:57:52.183Z,59.80
2023-03-18T06:58:46.162Z,59.67
2023-03-18T06:59:34.180Z,59.26
2023-03-18T07:00:10.416Z,59.43
2023-03-18T07:00:58.170Z,58.74
2023-03-18T07:01:33.041Z,58.41
2023-03-18T07:02:52.170Z,58.53
2023-03-18T07:03:26.538Z,58.59
2023-03-18T07:04:14.214Z,58.10
2023-03-18T07:04:57.190Z,58.36
2023-03-18T07:05:54.133Z,58.02
2023-03-18T07:06:48.164Z,58.16
2023-03-18T07:07:44.146Z,58.06
2023-03-18T07:08:38.156Z,57.83
2023-03-18T07:09:33.151Z,57.19
2023-03-18T07:10:31.262Z,57.29
2023-03-18T07:11:09.301Z,57.31
2023-03-18T07:11:57.247Z,57.18
2023-03-18T07:12:34.218Z,57.03
2023-03-18T07:13:22.151Z,57.06
2023-03-18T07:13:56.273Z,56.96
2023-03-18T07:14:43.125Z,56.85
2023-03-18T07:15:21.000Z,56.71
2023-03-18T07:16:03.191Z,56.86
2023-03-18T07:16:43.385Z,56.89
2023-03-18T07:17:23.127Z,56.53
2023-03-18T07:18:05.001Z,57.07
2023-03-18T07:18:49.129Z,56.60
2023-03-18T07:19:32.339Z,57.22
2023-03-18T07:20:17.137Z,56.71
2023-03-18T07:20:57.230Z,56.53
2023-03-18T07:21:38.280Z,56.28
2023-03-18T07:22:18.282Z,56.48
2023-03-18T07:23:02.149Z,56.69
2023-03-18T07:23:43.272Z,56.70
2023-03-18T07:24:28.141Z,56.41
2023-03-18T07:25:08.231Z,56.41
2023-03-18T07:25:49.123Z,56.37
2023-03-18T07:26:29.334Z,56.16
2023-03-18T07:27:11.151Z,56.37
2023-03-18T07:27:52.207Z,56.34
2023-03-18T07:28:33.156Z,56.07
2023-03-18T07:29:15.458Z,56.05
2023-03-18T07:29:56.130Z,55.98
2023-03-18T07:30:36.257Z,56.39
2023-03-18T07:31:16.173Z,56.06
2023-03-18T07:31:57.331Z,55.41
2023-03-18T07:32:38.726Z,55.52
2023-03-18T07:33:21.458Z,55.84
2023-03-18T07:34:01.114Z,55.70
2023-03-18T07:34:41.223Z,55.86
2023-03-18T07:35:22.119Z,55.52
2023-03-18T07:36:03.237Z,55.40
2023-03-18T07:36:44.116Z,55.84
2023-03-18T07:37:24.216Z,55.67
2023-03-18T07:38:05.144Z,55.33
2023-03-18T07:38:45.218Z,55.53
2023-03-18T07:39:26.102Z,55.62
2023-03-18T07:40:06.313Z,55.49
2023-03-18T07:40:46.126Z,54.70
2023-03-18T07:41:26.612Z,55.06
2023-03-18T07:42:07.125Z,54.82
2023-03-18T07:42:48.077Z,54.69
2023-03-18T07:43:29.156Z,54.77
2023-03-18T07:44:09.488Z,54.81
2023-03-18T07:44:49.102Z,55.33
2023-03-18T07:45:30.044Z,54.78
2023-03-18T07:46:11.161Z,54.62
2023-03-18T07:46:51.401Z,54.96
2023-03-18T07:47:31.126Z,54.96
2023-03-18T07:48:11.726Z,54.85
2023-03-18T07:48:53.133Z,54.60
2023-03-18T07:49:33.354Z,54.86
2023-03-18T07:50:16.252Z,54.58
2023-03-18T07:50:56.660Z,55.09
2023-03-18T07:51:39.111Z,55.03
2023-03-18T07:52:19.190Z,54.81
2023-03-18T07:52:59.075Z,55.12
2023-03-18T07:53:39.800Z,55.14
2023-03-18T07:54:22.128Z,54.82
2023-03-18T07:55:02.232Z,54.62
2023-03-18T07:55:48.325Z,54.55
2023-03-18T07:56:29.256Z,54.93
2023-03-18T07:57:11.155Z,54.79
2023-03-18T07:57:51.325Z,54.93
2023-03-18T07:58:32.085Z,54.59
2023-03-18T07:59:18.199Z,54.65
2023-03-18T07:59:59.104Z,54.62
2023-03-18T08:00:39.216Z,54.72
2023-03-18T08:01:22.088Z,54.59
2023-03-18T08:02:02.558Z,54.53
2023-03-18T08:02:43.110Z,54.34
2023-03-18T08:03:23.208Z,54.82
2023-03-18T08:04:04.152Z,54.60
2023-03-18T08:04:46.651Z,54.75
2023-03-18T08:05:28.111Z,54.88
2023-03-18T08:06:08.237Z,54.43
2023-03-18T08:06:50.069Z,54.49
2023-03-18T08:07:30.625Z,54.19
2023-03-18T08:08:12.089Z,54.39
2023-03-18T08:08:52.207Z,54.30
2023-03-18T08:09:38.724Z,54.07
2023-03-18T08:10:21.272Z,54.33
2023-03-18T08:11:07.141Z,54.58
2023-03-18T08:11:47.641Z,54.32
2023-03-18T08:12:38.475Z,54.42
2023-03-18T08:13:29.221Z,54.11
2023-03-18T08:14:10.106Z,54.53
2023-03-18T08:14:52.985Z,54.33
2023-03-18T08:15:34.830Z,54.67
2023-03-18T08:16:22.182Z,54.52
2023-03-18T08:17:17.127Z,54.02
2023-03-18T08:18:11.090Z,53.91
2023-03-18T08:19:05.060Z,53.91
2023-03-18T08:19:59.102Z,53.80
2023-03-18T08:20:53.127Z,53.93
2023-03-18T08:21:40.097Z,54.01
2023-03-18T08:22:14.446Z,53.65
2023-03-18T08:22:55.907Z,53.60
2023-03-18T08:23:37.082Z,53.66
2023-03-18T08:24:12.211Z,53.28
2023-03-18T08:24:46.108Z,53.29
2023-03-18T08:25:29.056Z,52.93
2023-03-18T08:26:03.216Z,52.85
2023-03-18T08:26:37.325Z,52.87
2023-03-18T08:27:18.103Z,53.13
2023-03-18T08:27:52.402Z,53.22
2023-03-18T08:28:27.337Z,53.44
2023-03-18T08:29:08.061Z,53.20
2023-03-18T08:29:42.220Z,52.76
2023-03-18T08:30:16.404Z,53.10
2023-03-18T08:31:04.064Z,52.82
2023-03-18T08:31:38.756Z,53.09
2023-03-18T08:32:13.470Z,52.76
2023-03-18T08:32:54.147Z,53.11
2023-03-18T08:33:30.168Z,53.10
2023-03-18T08:34:03.955Z,53.31
2023-03-18T08:34:45.056Z,52.98
2023-03-18T08:35:21.303Z,52.97
2023-03-18T08:35:56.289Z,52.94
2023-03-18T08:36:37.059Z,53.15
2023-03-18T08:37:11.915Z,52.68
2023-03-18T08:37:45.833Z,53.11
2023-03-18T08:38:27.074Z,53.15
2023-03-18T08:39:01.765Z,53.26
2023-03-18T08:39:35.986Z,52.96
2023-03-18T08:40:18.111Z,53.04
2023-03-18T08:40:52.176Z,53.14
2023-03-18T08:41:27.196Z,52.52
2023-03-18T08:42:11.064Z,52.82
2023-03-18T08:42:45.428Z,53.12
2023-03-18T08:43:22.257Z,53.04
2023-03-18T08:44:04.096Z,52.80
2023-03-18T08:44:38.133Z,52.66
2023-03-18T08:45:14.279Z,52.56
2023-03-18T08:46:02.086Z,52.54
2023-03-18T08:46:36.149Z,52.73
2023-03-18T08:47:09.893Z,52.66
2023-03-18T08:47:51.061Z,52.35
2023-03-18T08:48:25.725Z,52.44
2023-03-18T08:49:00.836Z,52.80
2023-03-18T08:49:42.078Z,52.58
2023-03-18T08:50:17.171Z,52.22
2023-03-18T08:50:51.111Z,52.56
2023-03-18T08:51:32.152Z,52.42
2023-03-18T08:52:06.830Z,52.66
2023-03-18T08:52:41.283Z,52.93
2023-03-18T08:53:22.059Z,52.68
2023-03-18T08:53:56.306Z,53.02
2023-03-18T08:54:30.073Z,52.78
2023-03-18T08:55:13.061Z,52.56
2023-03-18T08:55:47.124Z,52.68
2023-03-18T08:56:20.943Z,52.51
2023-03-18T08:57:02.025Z,52.43
2023-03-18T08:57:39.447Z,52.35
2023-03-18T08:58:13.969Z,52.15
2023-03-18T08:58:55.028Z,52.23
2023-03-18T08:59:29.150Z,52.03
2023-03-18T09:00:05.913Z,51.86
2023-03-18T09:00:48.108Z,51.95
2023-03-18T09:01:30.267Z,52.18
2023-03-18T09:02:11.045Z,52.28
2023-03-18T09:02:52.771Z,52.04
2023-03-18T09:03:34.437Z,52.20